Time;durP1;ratioP1;P1;durP2;ratioP2;P2;SDS_P1;SDS_P2;PMS_P1;PMS_P2;Temp;Humidity;BMP_temperature;BMP_pressure;BME280_temperature;BME280_humidity;BME280_pressure;Samples;Min_cycle;Max_cycle;Signal;HPM_P1;HPM_P2
2021/06/05 00:02:18;;;;;;;12.93;11.75;;;18.80;99.90;;;;;;5054321;28;20426;-71
2021/06/05 00:04:44;;;;;;;13.00;11.80;;;18.80;99.90;;;;;;5053124;28;20194;-72
2021/06/05 00:07:10;;;;;;;13.27;11.97;;;18.80;99.90;;;;;;5054456;28;20408;-72
2021/06/05 00:09:36;;;;;;;13.07;11.93;;;18.90;99.90;;;;;;5054004;28;20408;-72
2021/06/05 00:12:01;;;;;;;13.03;11.83;;;18.90;99.90;;;;;;5053785;28;20186;-73
2021/06/05 00:14:27;;;;;;;12.30;11.20;;;18.90;99.90;;;;;;5053745;28;20170;-72
2021/06/05 00:16:53;;;;;;;11.97;10.97;;;19.00;99.90;;;;;;5054338;28;20265;-72
2021/06/05 00:19:20;;;;;;;11.60;10.63;;;19.10;99.90;;;;;;5053561;28;20193;-73
2021/06/05 00:21:46;;;;;;;12.87;11.77;;;19.00;99.90;;;;;;5053539;28;20212;-72
2021/06/05 00:24:13;;;;;;;12.17;11.07;;;19.00;99.90;;;;;;5054301;28;20409;-71
2021/06/05 00:26:38;;;;;;;11.83;10.73;;;18.90;99.90;;;;;;5054515;28;20547;-70
2021/06/05 00:29:04;;;;;;;12.63;11.57;;;18.80;99.90;;;;;;5053871;28;20416;-71
2021/06/05 00:31:30;;;;;;;12.83;11.53;;;18.80;99.90;;;;;;5054309;28;20415;-71
2021/06/05 00:33:56;;;;;;;12.30;11.20;;;18.70;99.90;;;;;;5053757;28;20355;-72
2021/06/05 00:36:22;;;;;;;13.20;12.10;;;18.70;99.90;;;;;;5052360;28;20770;-72
2021/06/05 00:38:48;;;;;;;12.73;11.63;;;18.70;99.90;;;;;;5053740;28;20547;-71
2021/06/05 00:41:16;;;;;;;10.80;9.63;;;18.70;99.90;;;;;;5053764;28;20488;-71
2021/06/05 00:43:49;;;;;;;10.70;9.80;;;18.60;99.90;;;;;;5054290;28;20196;-71
2021/06/05 00:46:17;;;;;;;11.03;10.03;;;18.50;99.90;;;;;;5054006;28;20839;-71
2021/06/05 00:48:43;;;;;;;10.97;9.63;;;18.40;99.90;;;;;;5068929;28;20413;-72
2021/06/05 00:51:10;;;;;;;10.30;9.40;;;18.40;99.90;;;;;;5072187;28;20472;-71
2021/06/05 00:53:36;;;;;;;11.10;9.07;;;18.40;99.90;;;;;;5066671;28;20400;-72
2021/06/05 00:56:05;;;;;;;10.03;8.20;;;18.30;99.90;;;;;;5054042;28;20471;-72
2021/06/05 00:58:31;;;;;;;9.33;8.43;;;18.30;99.90;;;;;;5053476;28;20444;-72
2021/06/05 01:01:06;;;;;;;9.17;8.40;;;18.40;99.90;;;;;;5053224;28;20425;-72
2021/06/05 01:03:33;;;;;;;10.43;9.48;;;18.40;99.90;;;;;;5051980;28;20422;-72
2021/06/05 01:06:06;;;;;;;9.30;8.40;;;18.60;99.90;;;;;;5053726;28;20188;-73
2021/06/05 01:09:09;;;;;;;8.63;7.83;;;18.60;99.90;;;;;;5053455;28;20420;-73
2021/06/05 01:11:52;;;;;;;10.17;9.20;;;18.70;99.90;;;;;;5053618;28;20427;-72
2021/06/05 01:14:30;;;;;;;10.53;9.60;;;18.80;99.90;;;;;;5053326;28;20451;-72
2021/06/05 01:16:59;;;;;;;9.83;8.87;;;18.80;99.90;;;;;;5053480;28;20399;-71
2021/06/05 01:19:41;;;;;;;10.50;9.60;;;18.80;99.90;;;;;;5053692;28;20444;-72
2021/06/05 01:22:16;;;;;;;9.20;8.30;;;18.80;99.90;;;;;;5057069;28;20417;-72
2021/06/05 01:25:00;;;;;;;10.07;9.07;;;18.90;99.90;;;;;;5053024;28;20416;-72
2021/06/05 01:27:31;;;;;;;12.10;9.63;;;18.90;99.90;;;;;;5053109;28;20409;-72
2021/06/05 01:30:07;;;;;;;9.83;9.03;;;18.90;99.90;;;;;;5052315;28;20437;-72
2021/06/05 01:32:35;;;;;;;14.13;9.70;;;18.90;99.90;;;;;;5052740;28;20397;-73
2021/06/05 01:35:00;;;;;;;10.95;9.95;;;18.90;99.90;;;;;;5052636;28;20404;-72
2021/06/05 01:37:27;;;;;;;10.07;9.20;;;18.90;99.90;;;;;;5053119;28;20173;-73
2021/06/05 01:39:54;;;;;;;10.63;9.63;;;19.00;99.90;;;;;;5052834;28;20505;-72
2021/06/05 01:42:29;;;;;;;10.10;9.20;;;18.90;99.90;;;;;;5052954;28;20205;-74
2021/06/05 01:44:56;;;;;;;11.43;10.43;;;19.10;99.90;;;;;;5053268;28;20412;-72
2021/06/05 01:47:22;;;;;;;21.37;17.00;;;19.10;99.90;;;;;;5053106;28;20522;-73
2021/06/05 01:49:49;;;;;;;20.07;17.10;;;19.10;99.90;;;;;;5052798;28;20528;-72
2021/06/05 01:52:21;;;;;;;20.60;17.30;;;18.90;99.90;;;;;;5052725;28;20762;-72
2021/06/05 01:55:03;;;;;;;25.60;18.90;;;19.00;99.90;;;;;;5052624;28;20512;-72
2021/06/05 01:57:32;;;;;;;22.63;18.00;;;18.90;99.90;;;;;;5053297;28;20412;-73
2021/06/05 01:59:58;;;;;;;22.70;17.30;;;18.90;99.90;;;;;;5052427;28;20468;-72
2021/06/05 02:02:24;;;;;;;22.80;18.27;;;18.90;99.90;;;;;;5052342;28;20413;-73
2021/06/05 02:04:50;;;;;;;23.40;18.63;;;19.00;99.90;;;;;;5054208;28;20305;-71
2021/06/05 02:07:17;;;;;;;26.40;18.87;;;19.00;99.90;;;;;;5056328;28;20566;-71
2021/06/05 02:09:43;;;;;;;25.97;19.90;;;19.10;99.90;;;;;;5055946;28;20922;-72
2021/06/05 02:12:20;;;;;;;29.33;20.70;;;19.00;99.90;;;;;;5056306;28;20443;-71
2021/06/05 02:15:00;;;;;;;30.13;20.23;;;19.00;99.90;;;;;;5054770;28;20443;-71
2021/06/05 02:17:28;;;;;;;28.37;21.77;;;19.00;99.90;;;;;;5056354;28;20416;-71
2021/06/05 02:20:00;;;;;;;30.87;22.07;;;19.00;99.90;;;;;;5056349;28;20466;-72
2021/06/05 02:22:30;;;;;;;30.23;21.73;;;19.10;99.90;;;;;;5056600;28;20770;-72
2021/06/05 02:24:59;;;;;;;33.40;23.57;;;19.20;99.90;;;;;;5039225;28;20429;-71
2021/06/05 02:27:27;;;;;;;39.50;24.70;;;19.20;99.90;;;;;;5038815;28;20413;-71
2021/06/05 02:29:54;;;;;;;37.50;24.10;;;19.20;99.90;;;;;;5037564;28;20433;-72
2021/06/05 02:32:24;;;;;;;33.17;23.50;;;19.10;99.90;;;;;;5035801;28;20430;-71
2021/06/05 02:34:52;;;;;;;35.37;23.53;;;19.10;99.90;;;;;;5051472;28;20462;-72
2021/06/05 02:37:20;;;;;;;34.30;24.30;;;19.20;99.90;;;;;;5055552;28;20491;-72
2021/06/05 02:39:46;;;;;;;38.43;23.87;;;19.20;99.90;;;;;;5054275;28;20495;-72
2021/06/05 02:42:16;;;;;;;36.47;24.10;;;19.20;99.90;;;;;;5055892;28;20513;-72
2021/06/05 02:44:46;;;;;;;41.13;26.57;;;19.20;99.90;;;;;;5054822;28;20186;-73
2021/06/05 02:47:12;;;;;;;42.03;25.30;;;19.20;99.90;;;;;;5055577;28;20412;-73
2021/06/05 02:49:38;;;;;;;45.00;28.93;;;19.30;99.90;;;;;;5055726;28;20405;-72
2021/06/05 02:52:11;;;;;;;40.40;25.77;;;19.20;99.90;;;;;;5055407;28;20492;-73
2021/06/05 02:54:37;;;;;;;37.43;26.00;;;19.10;99.90;;;;;;5055106;28;20440;-73
2021/06/05 02:57:06;;;;;;;46.07;28.87;;;19.10;99.90;;;;;;5055182;28;20417;-73
2021/06/05 02:59:31;;;;;;;40.47;26.90;;;19.10;99.90;;;;;;5054987;28;20464;-72
2021/06/05 03:01:57;;;;;;;43.70;27.67;;;19.10;99.90;;;;;;5055343;28;20983;-73
2021/06/05 03:04:23;;;;;;;42.53;27.57;;;19.00;99.90;;;;;;5054640;28;20201;-73
2021/06/05 03:06:49;;;;;;;44.33;29.13;;;19.10;99.90;;;;;;5054826;28;20424;-73
2021/06/05 03:09:16;;;;;;;42.50;27.67;;;19.10;99.90;;;;;;5055240;28;20912;-72
2021/06/05 03:11:43;;;;;;;39.93;26.47;;;19.20;99.90;;;;;;5055214;28;20420;-71
2021/06/05 03:14:10;;;;;;;44.97;29.52;;;19.20;99.90;;;;;;5054517;28;20898;-70
2021/06/05 03:16:35;;;;;;;39.30;25.57;;;19.20;99.90;;;;;;5054176;28;20281;-70
2021/06/05 03:19:01;;;;;;;42.00;27.70;;;19.20;99.90;;;;;;5054459;28;21025;-71
2021/06/05 03:21:26;;;;;;;38.37;25.57;;;19.20;99.90;;;;;;5054878;28;20174;-71
2021/06/05 03:23:52;;;;;;;36.27;26.40;;;19.20;99.90;;;;;;5054562;28;20162;-71
2021/06/05 03:26:19;;;;;;;34.23;24.97;;;19.20;99.90;;;;;;5054424;28;20220;-72
2021/06/05 03:28:46;;;;;;;34.67;25.33;;;19.30;99.90;;;;;;5054859;28;20185;-72
2021/06/05 03:31:13;;;;;;;37.20;27.07;;;19.30;99.90;;;;;;5054660;28;20408;-73
2021/06/05 03:33:39;;;;;;;39.60;26.97;;;19.40;99.90;;;;;;5054460;28;20562;-72
2021/06/05 03:36:06;;;;;;;38.13;26.83;;;19.30;99.90;;;;;;5053597;28;20535;-72
2021/06/05 03:38:32;;;;;;;37.03;26.43;;;19.30;99.90;;;;;;5054088;28;20193;-73
2021/06/05 03:40:58;;;;;;;41.90;28.70;;;19.30;99.90;;;;;;5053561;28;20756;-71
2021/06/05 03:43:24;;;;;;;40.13;26.63;;;19.30;99.90;;;;;;5054182;28;20178;-72
2021/06/05 03:45:50;;;;;;;38.30;26.50;;;19.30;99.90;;;;;;5055865;28;20435;-71
2021/06/05 03:48:16;;;;;;;40.30;27.87;;;19.40;99.90;;;;;;5055391;28;20786;-71
2021/06/05 03:50:51;;;;;;;40.70;28.60;;;19.40;99.90;;;;;;5054338;28;20417;-72
2021/06/05 03:53:20;;;;;;;39.40;29.52;;;19.50;99.90;;;;;;5053882;28;20406;-72
2021/06/05 03:55:45;;;;;;;43.93;30.60;;;19.50;99.90;;;;;;5054591;28;20237;-71
2021/06/05 03:58:12;;;;;;;37.97;28.60;;;19.50;99.90;;;;;;5053534;28;20456;-71
2021/06/05 04:00:43;;;;;;;38.90;28.27;;;19.50;99.90;;;;;;5054291;28;20288;-70
2021/06/05 04:03:09;;;;;;;37.20;29.03;;;19.50;99.90;;;;;;5053976;28;20428;-71
2021/06/05 04:05:36;;;;;;;41.77;30.10;;;19.50;99.90;;;;;;5054052;28;20431;-71
2021/06/05 04:08:03;;;;;;;38.13;28.83;;;19.50;99.90;;;;;;5053798;28;20512;-72
2021/06/05 04:10:29;;;;;;;43.63;31.27;;;19.50;99.90;;;;;;5054111;28;20460;-71
2021/06/05 04:12:57;;;;;;;35.43;28.00;;;19.50;99.90;;;;;;5053390;28;20485;-72
2021/06/05 04:15:24;;;;;;;38.00;28.73;;;19.40;99.90;;;;;;5053484;28;20486;-72
2021/06/05 04:17:59;;;;;;;40.50;30.10;;;19.40;99.90;;;;;;5054087;28;20752;-71
2021/06/05 04:20:25;;;;;;;32.95;26.73;;;19.50;99.90;;;;;;5053318;28;20440;-71
2021/06/05 04:22:51;;;;;;;35.37;27.73;;;19.40;99.90;;;;;;5053758;28;20261;-72
2021/06/05 04:25:17;;;;;;;33.90;27.17;;;19.50;99.90;;;;;;5053985;28;20233;-71
2021/06/05 04:27:42;;;;;;;35.30;29.80;;;19.40;99.90;;;;;;5060651;28;20431;-72
2021/06/05 04:30:11;;;;;;;34.53;27.83;;;19.40;99.90;;;;;;5069590;28;20174;-71
2021/06/05 04:32:36;;;;;;;30.07;25.07;;;19.30;99.90;;;;;;5065289;28;20177;-71
2021/06/05 04:35:03;;;;;;;31.10;24.43;;;19.30;99.90;;;;;;5053662;28;20914;-71
2021/06/05 04:37:28;;;;;;;33.03;25.73;;;19.30;99.90;;;;;;5054197;28;20182;-71
2021/06/05 04:39:54;;;;;;;30.40;24.60;;;19.30;99.90;;;;;;5053639;28;20489;-71
2021/06/05 04:42:19;;;;;;;29.57;23.63;;;19.40;99.90;;;;;;5053027;28;20210;-72
2021/06/05 04:44:45;;;;;;;33.00;25.03;;;19.40;99.90;;;;;;5053014;28;20277;-72
2021/06/05 04:47:11;;;;;;;27.67;22.77;;;19.40;99.90;;;;;;5054104;28;20182;-72
2021/06/05 04:49:36;;;;;;;27.87;23.30;;;19.40;99.90;;;;;;5053574;28;20416;-72
2021/06/05 04:52:03;;;;;;;28.93;23.63;;;19.40;99.90;;;;;;5052945;28;20503;-72
2021/06/05 04:54:28;;;;;;;32.80;25.30;;;19.40;99.90;;;;;;5052904;28;20536;-72
2021/06/05 04:56:54;;;;;;;29.90;23.50;;;19.40;99.90;;;;;;5053229;28;20423;-72
2021/06/05 04:59:21;;;;;;;31.73;24.63;;;19.40;99.90;;;;;;5053147;28;20202;-72
2021/06/05 05:01:47;;;;;;;28.20;23.20;;;19.40;99.90;;;;;;5053289;28;20253;-72
2021/06/05 05:04:13;;;;;;;29.83;24.53;;;19.40;99.90;;;;;;5052451;28;20428;-72
2021/06/05 05:06:39;;;;;;;33.07;26.30;;;19.40;99.90;;;;;;5052931;28;20437;-72
2021/06/05 05:09:09;;;;;;;35.37;28.47;;;19.50;99.90;;;;;;5053000;28;20782;-72
2021/06/05 05:11:34;;;;;;;34.63;26.60;;;19.40;99.90;;;;;;5053319;28;20170;-72
2021/06/05 05:14:00;;;;;;;33.30;27.13;;;19.40;99.90;;;;;;5052768;28;20773;-72
2021/06/05 05:16:26;;;;;;;36.17;28.73;;;19.50;99.90;;;;;;5052841;28;20210;-72
2021/06/05 05:18:53;;;;;;;38.17;29.30;;;19.50;99.90;;;;;;5052785;28;20194;-73
2021/06/05 05:21:20;;;;;;;36.80;27.40;;;19.50;99.90;;;;;;5052986;28;20533;-72
2021/06/05 05:23:46;;;;;;;35.73;28.10;;;19.50;99.90;;;;;;5052421;28;20424;-72
2021/06/05 05:26:12;;;;;;;37.83;28.03;;;19.50;99.90;;;;;;5052672;28;20797;-72
2021/06/05 05:28:38;;;;;;;36.63;27.70;;;19.60;99.90;;;;;;5053001;28;20174;-72
2021/06/05 05:31:08;;;;;;;36.63;29.07;;;19.60;99.90;;;;;;5052936;28;20413;-72
2021/06/05 05:33:38;;;;;;;38.03;28.97;;;19.60;99.90;;;;;;5052593;28;20170;-72
2021/06/05 05:36:07;;;;;;;36.37;27.50;;;19.70;99.90;;;;;;5052854;28;20432;-72
2021/06/05 05:38:32;;;;;;;35.83;27.43;;;19.70;99.90;;;;;;5053730;28;20411;-72
2021/06/05 05:40:58;;;;;;;36.10;28.90;;;19.80;99.90;;;;;;5056559;28;20417;-72
2021/06/05 05:43:24;;;;;;;34.37;27.17;;;19.80;99.90;;;;;;5056687;28;20197;-72
2021/06/05 05:45:49;;;;;;;37.83;29.10;;;19.90;99.90;;;;;;5056345;28;20240;-72
2021/06/05 05:48:17;;;;;;;36.70;28.37;;;19.90;99.90;;;;;;5056210;28;20174;-73
2021/06/05 05:50:44;;;;;;;38.10;29.17;;;19.90;99.90;;;;;;5057035;28;20205;-73
2021/06/05 05:53:11;;;;;;;39.17;29.63;;;19.90;99.90;;;;;;5056239;28;20405;-72
2021/06/05 05:55:36;;;;;;;43.40;30.47;;;19.80;99.90;;;;;;5057106;28;20520;-70
2021/06/05 05:58:07;;;;;;;36.53;28.90;;;19.70;99.90;;;;;;5056303;28;20539;-71
2021/06/05 06:00:35;;;;;;;40.30;30.13;;;19.80;99.90;;;;;;5056300;28;20217;-72
2021/06/05 06:03:01;;;;;;;36.73;30.90;;;19.80;99.90;;;;;;5056507;28;20415;-71
2021/06/05 06:05:27;;;;;;;50.53;30.97;;;19.80;99.90;;;;;;5056717;28;20428;-72
2021/06/05 06:07:53;;;;;;;40.10;30.27;;;19.80;99.90;;;;;;5056069;28;20415;-71
2021/06/05 06:10:20;;;;;;;38.10;30.00;;;19.80;99.90;;;;;;5056180;28;20251;-71
2021/06/05 06:12:45;;;;;;;39.90;29.37;;;19.80;99.90;;;;;;5058498;28;20198;-71
2021/06/05 06:15:14;;;;;;;36.47;28.97;;;19.80;99.90;;;;;;5059119;28;20969;-72
2021/06/05 06:17:44;;;;;;;39.20;30.97;;;19.90;99.90;;;;;;5056154;28;20631;-72
2021/06/05 06:20:24;;;;;;;39.00;29.43;;;19.90;99.90;;;;;;5055508;28;20464;-72
2021/06/05 06:22:50;;;;;;;36.73;28.60;;;19.90;99.90;;;;;;5055609;28;20905;-72
2021/06/05 06:25:19;;;;;;;39.70;30.77;;;19.80;99.90;;;;;;5036966;28;20489;-72
2021/06/05 06:27:47;;;;;;;37.90;30.10;;;19.90;99.90;;;;;;5055086;28;20423;-72
2021/06/05 06:30:22;;;;;;;41.00;30.23;;;19.90;99.90;;;;;;5050048;28;20432;-71
2021/06/05 06:32:52;;;;;;;40.80;31.37;;;19.90;99.90;;;;;;5049263;28;20440;-71
2021/06/05 06:35:19;;;;;;;45.67;33.20;;;19.90;99.90;;;;;;5043908;28;20460;-72
2021/06/05 06:37:45;;;;;;;47.38;37.72;;;19.80;99.90;;;;;;5037620;28;20887;-72
2021/06/05 06:40:11;;;;;;;43.73;34.30;;;19.80;99.90;;;;;;5035916;28;20260;-73
2021/06/05 06:42:37;;;;;;;48.97;38.78;;;19.70;99.90;;;;;;5040364;28;20427;-72
2021/06/05 06:45:03;;;;;;;47.87;37.30;;;19.70;99.90;;;;;;5046401;28;20283;-72
2021/06/05 06:47:29;;;;;;;46.10;35.30;;;19.80;99.90;;;;;;5047165;28;20217;-72
2021/06/05 06:49:54;;;;;;;44.17;34.10;;;19.80;99.90;;;;;;5047422;28;20931;-72
2021/06/05 06:52:25;;;;;;;46.50;34.60;;;19.80;99.90;;;;;;5047239;28;20269;-73
2021/06/05 06:54:51;;;;;;;44.77;34.20;;;19.90;99.90;;;;;;5035431;28;20205;-71
2021/06/05 06:57:17;;;;;;;46.90;33.40;;;20.00;99.90;;;;;;5037594;28;20452;-71
2021/06/05 06:59:43;;;;;;;48.30;34.77;;;19.90;99.90;;;;;;5063064;28;20996;-70
2021/06/05 07:02:10;;;;;;;47.67;34.77;;;19.90;99.90;;;;;;5067459;28;20241;-72
2021/06/05 07:04:35;;;;;;;39.50;30.60;;;19.90;99.90;;;;;;5053775;28;20197;-71
2021/06/05 07:07:01;;;;;;;41.20;32.83;;;20.00;99.90;;;;;;5065876;28;20423;-71
2021/06/05 07:09:32;;;;;;;37.97;30.27;;;20.10;99.90;;;;;;5043303;28;20559;-71
2021/06/05 07:11:58;;;;;;;38.47;29.53;;;20.10;99.90;;;;;;5057812;28;20536;-71
2021/06/05 07:14:27;;;;;;;40.27;30.33;;;20.20;99.90;;;;;;5059414;28;20443;-71
2021/06/05 07:16:53;;;;;;;37.87;32.50;;;20.20;99.90;;;;;;5062188;28;20532;-71
2021/06/05 07:19:19;;;;;;;34.10;28.13;;;20.20;99.90;;;;;;5054252;28;20535;-72
2021/06/05 07:21:45;;;;;;;36.97;28.83;;;20.10;99.90;;;;;;5053405;28;20413;-71
2021/06/05 07:24:12;;;;;;;37.00;28.37;;;20.10;99.90;;;;;;5054295;28;20523;-72
2021/06/05 07:26:39;;;;;;;31.50;26.10;;;20.20;99.90;;;;;;5054525;28;20679;-72
2021/06/05 07:29:07;;;;;;;35.37;27.50;;;20.20;99.90;;;;;;5053767;28;20525;-72
2021/06/05 07:31:41;;;;;;;34.63;26.60;;;20.20;99.90;;;;;;5057855;28;20408;-72
2021/06/05 07:34:06;;;;;;;33.43;27.10;;;20.20;99.90;;;;;;5074046;28;20427;-71
2021/06/05 07:36:42;;;;;;;28.83;24.50;;;20.10;99.90;;;;;;5056153;28;20436;-73
2021/06/05 07:39:13;;;;;;;31.43;25.43;;;20.20;99.90;;;;;;5072457;28;20208;-75
2021/06/05 07:41:41;;;;;;;28.97;24.57;;;20.20;99.90;;;;;;5071530;28;20476;-73
2021/06/05 07:44:08;;;;;;;29.70;25.30;;;20.30;99.90;;;;;;5065162;28;20458;-74
2021/06/05 07:46:42;;;;;;;30.90;25.40;;;20.30;99.90;;;;;;5066528;28;20462;-74
2021/06/05 07:49:08;;;;;;;30.88;26.60;;;20.30;99.90;;;;;;5074335;28;20416;-74
2021/06/05 07:51:33;;;;;;;32.17;26.73;;;20.30;99.90;;;;;;5070507;28;20175;-73
2021/06/05 07:53:59;;;;;;;30.80;26.00;;;20.20;99.90;;;;;;5072100;28;20200;-73
2021/06/05 07:56:25;;;;;;;28.30;24.77;;;20.30;99.90;;;;;;5072811;28;20241;-73
2021/06/05 07:58:50;;;;;;;27.40;23.37;;;20.30;99.90;;;;;;5071566;28;20210;-74
2021/06/05 08:01:16;;;;;;;28.27;23.47;;;20.30;99.90;;;;;;5057172;28;20178;-73
2021/06/05 08:03:41;;;;;;;34.43;25.70;;;20.30;99.90;;;;;;5056864;28;20612;-73
2021/06/05 08:06:07;;;;;;;31.57;26.77;;;20.30;99.90;;;;;;5082634;28;20220;-73
2021/06/05 08:08:33;;;;;;;30.40;25.07;;;20.20;99.90;;;;;;5097598;28;20158;-73
2021/06/05 08:10:58;;;;;;;32.13;23.90;;;20.30;99.90;;;;;;5073211;28;20857;-72
2021/06/05 08:13:24;;;;;;;28.00;23.30;;;20.20;99.90;;;;;;5037034;28;20664;-73
2021/06/05 08:15:51;;;;;;;26.83;23.20;;;20.30;99.90;;;;;;5045216;28;20282;-73
2021/06/05 08:18:18;;;;;;;30.70;24.53;;;20.40;99.90;;;;;;5054830;28;20957;-72
2021/06/05 08:20:48;;;;;;;34.63;26.83;;;20.40;99.90;;;;;;5052137;28;20498;-73
2021/06/05 08:23:15;;;;;;;28.50;23.30;;;20.40;99.90;;;;;;5056953;28;20933;-73
2021/06/05 08:25:41;;;;;;;29.97;25.63;;;20.40;99.90;;;;;;5066413;28;20470;-72
2021/06/05 08:28:08;;;;;;;25.93;22.10;;;20.40;99.90;;;;;;5052504;28;20433;-72
2021/06/05 08:30:41;;;;;;;30.13;25.03;;;20.50;99.90;;;;;;5041278;28;20663;-70
2021/06/05 08:33:08;;;;;;;24.90;21.70;;;20.60;99.90;;;;;;5051579;28;20505;-70
2021/06/05 08:35:34;;;;;;;23.30;20.33;;;20.60;99.90;;;;;;5068110;28;20440;-70
2021/06/05 08:38:01;;;;;;;22.23;19.93;;;20.80;99.90;;;;;;5054529;28;20427;-72
2021/06/05 08:40:46;;;;;;;24.13;19.90;;;20.80;99.90;;;;;;5060060;28;20524;-70
2021/06/05 08:43:29;;;;;;;26.73;22.00;;;21.00;99.90;;;;;;5068475;28;20909;-70
2021/06/05 08:45:57;;;;;;;23.30;20.40;;;21.10;99.90;;;;;;5069823;28;20442;-71
2021/06/05 08:48:23;;;;;;;21.00;18.47;;;21.20;99.90;;;;;;5060377;28;20435;-72
2021/06/05 08:50:49;;;;;;;23.40;20.90;;;21.30;99.90;;;;;;5068632;28;20940;-71
2021/06/05 08:53:23;;;;;;;21.17;18.97;;;21.30;99.90;;;;;;5069284;28;20612;-73
2021/06/05 08:55:58;;;;;;;26.20;22.40;;;21.30;99.90;;;;;;5069185;28;20204;-72
2021/06/05 08:58:41;;;;;;;29.10;23.13;;;21.20;99.90;;;;;;5050572;28;20443;-72
2021/06/05 09:01:22;;;;;;;28.93;23.63;;;20.60;99.90;;;;;;5069154;28;20496;-73
2021/06/05 09:03:58;;;;;;;31.57;22.50;;;20.20;99.90;;;;;;5052459;28;20830;-74
2021/06/05 09:06:39;;;;;;;27.80;22.10;;;20.30;99.90;;;;;;5068954;28;20438;-73
2021/06/05 09:09:07;;;;;;;26.73;21.90;;;20.40;99.90;;;;;;5055191;28;20432;-73
2021/06/05 09:11:33;;;;;;;33.13;24.65;;;20.60;99.90;;;;;;5067425;28;20410;-74
2021/06/05 09:13:59;;;;;;;30.50;24.80;;;20.80;99.90;;;;;;5071139;27;20197;-73
2021/06/05 09:16:34;;;;;;;26.30;22.40;;;20.80;99.90;;;;;;5069224;28;20466;-71
2021/06/05 09:19:23;;;;;;;26.43;20.33;;;20.90;99.90;;;;;;5068152;28;20910;-74
2021/06/05 09:21:59;;;;;;;24.07;19.93;;;21.10;99.90;;;;;;5044590;28;20423;-72
2021/06/05 09:24:36;;;;;;;27.53;23.03;;;21.30;99.90;;;;;;5075198;28;20411;-73
2021/06/05 09:27:13;;;;;;;25.63;20.70;;;21.30;99.90;;;;;;5075418;28;20419;-73
2021/06/05 09:29:49;;;;;;;29.57;23.13;;;21.30;99.90;;;;;;5070512;28;20899;-73
2021/06/05 09:32:31;;;;;;;26.73;21.70;;;21.20;99.90;;;;;;5075343;28;20940;-73
2021/06/05 09:35:04;;;;;;;24.10;20.23;;;21.00;99.90;;;;;;5071148;28;20442;-72
2021/06/05 09:37:47;;;;;;;29.97;21.47;;;21.20;99.90;;;;;;5073003;28;20479;-72
2021/06/05 09:40:34;;;;;;;25.10;19.50;;;21.40;99.90;;;;;;5069686;28;20471;-73
2021/06/05 09:43:09;;;;;;;23.92;21.33;;;21.70;99.90;;;;;;5062517;28;20986;-72
2021/06/05 09:45:43;;;;;;;24.03;21.43;;;22.10;99.90;;;;;;5073532;28;20204;-72
2021/06/05 09:48:31;;;;;;;25.00;21.57;;;22.40;99.90;;;;;;5053333;28;20466;-73
2021/06/05 09:51:00;;;;;;;26.67;22.80;;;22.50;99.90;;;;;;5045898;28;20451;-74
2021/06/05 09:53:34;;;;;;;27.47;21.90;;;22.50;99.90;;;;;;5072339;28;20182;-72
2021/06/05 09:56:12;;;;;;;23.23;20.30;;;22.20;99.90;;;;;;5050786;28;20471;-73
2021/06/05 09:58:44;;;;;;;27.00;21.23;;;22.30;99.90;;;;;;5046159;28;20888;-73
2021/06/05 10:01:22;;;;;;;24.60;20.70;;;22.40;99.90;;;;;;5065526;28;20431;-74
2021/06/05 10:03:54;;;;;;;25.47;20.90;;;22.30;99.90;;;;;;5075818;28;20442;-73
2021/06/05 10:06:45;;;;;;;23.57;20.13;;;22.40;99.90;;;;;;5075882;28;20439;-73
2021/06/05 10:09:25;;;;;;;25.10;21.63;;;22.40;99.90;;;;;;5062645;27;20449;-72
2021/06/05 10:12:12;;;;;;;25.93;21.83;;;22.50;99.90;;;;;;5045774;28;20415;-72
2021/06/05 10:14:37;;;;;;;25.37;20.10;;;22.60;99.90;;;;;;5076031;28;20446;-73
2021/06/05 10:17:16;;;;;;;27.10;22.43;;;22.90;99.90;;;;;;5071364;28;20473;-73
2021/06/05 10:19:46;;;;;;;24.03;21.37;;;22.90;99.90;;;;;;5071029;28;20201;-72
2021/06/05 10:22:13;;;;;;;26.27;23.48;;;22.70;99.90;;;;;;5075376;28;20433;-73
2021/06/05 10:24:59;;;;;;;28.30;23.03;;;22.70;99.90;;;;;;5064863;28;20194;-72
2021/06/05 10:27:37;;;;;;;28.77;22.63;;;22.80;99.90;;;;;;5065629;28;20411;-72
2021/06/05 10:30:16;;;;;;;25.80;23.00;;;22.60;99.90;;;;;;5061752;28;20963;-73
2021/06/05 10:32:43;;;;;;;27.37;22.37;;;22.20;99.90;;;;;;5062165;28;20442;-72
2021/06/05 10:35:22;;;;;;;27.10;21.23;;;22.10;99.90;;;;;;5069866;28;20436;-73
2021/06/05 10:37:48;;;;;;;24.43;20.83;;;22.40;99.90;;;;;;5071320;28;20442;-74
2021/06/05 10:40:21;;;;;;;24.17;20.20;;;22.70;99.90;;;;;;5071831;28;20486;-73
2021/06/05 10:42:50;;;;;;;24.43;21.13;;;23.00;99.90;;;;;;5067014;28;20481;-73
2021/06/05 10:45:24;;;;;;;25.80;23.10;;;23.30;99.90;;;;;;5072121;28;20775;-73
2021/06/05 10:48:10;;;;;;;23.73;21.17;;;23.20;99.90;;;;;;5060157;28;20448;-73
2021/06/05 10:50:42;;;;;;;27.10;24.17;;;23.10;99.90;;;;;;5062378;28;20496;-73
2021/06/05 10:53:24;;;;;;;28.80;25.10;;;23.00;99.90;;;;;;5066949;28;20439;-72
2021/06/05 10:56:00;;;;;;;28.67;23.33;;;22.70;99.90;;;;;;5087068;28;20466;-74
2021/06/05 10:58:51;;;;;;;27.27;22.77;;;22.80;99.90;;;;;;5089750;28;20446;-74
2021/06/05 11:01:28;;;;;;;21.97;19.53;;;22.60;99.90;;;;;;5077442;28;20855;-72
2021/06/05 11:04:02;;;;;;;23.13;18.80;;;22.90;99.90;;;;;;5053761;28;20407;-73
2021/06/05 11:06:48;;;;;;;24.63;19.73;;;23.20;99.90;;;;;;5072782;28;20435;-73
2021/06/05 11:09:32;;;;;;;24.63;21.10;;;23.40;99.90;;;;;;5050616;28;20428;-73
2021/06/05 11:12:23;;;;;;;25.57;20.97;;;23.60;99.90;;;;;;5039017;28;20449;-72
2021/06/05 11:14:50;;;;;;;25.50;22.10;;;23.50;99.90;;;;;;5039462;28;20523;-73
2021/06/05 11:17:38;;;;;;;24.13;21.55;;;23.10;99.90;;;;;;5052586;28;20445;-72
2021/06/05 11:20:08;;;;;;;22.23;19.83;;;23.10;99.90;;;;;;5051137;28;20209;-72
2021/06/05 11:22:49;;;;;;;25.63;22.83;;;23.40;99.90;;;;;;5050890;28;20451;-72
2021/06/05 11:25:15;;;;;;;23.20;20.70;;;23.00;99.90;;;;;;5046090;28;20449;-71
2021/06/05 11:27:40;;;;;;;24.53;21.57;;;22.90;99.90;;;;;;5062920;28;21043;-74
2021/06/05 11:30:21;;;;;;;24.70;21.47;;;22.80;99.90;;;;;;5062090;28;20181;-72
2021/06/05 11:33:00;;;;;;;24.37;20.37;;;22.60;99.90;;;;;;5057930;28;20178;-73
2021/06/05 11:35:33;;;;;;;24.80;20.77;;;22.70;99.90;;;;;;5072404;28;20444;-72
2021/06/05 11:38:03;;;;;;;23.00;20.57;;;22.70;99.90;;;;;;5061090;28;20493;-72
2021/06/05 11:40:48;;;;;;;23.67;21.17;;;22.70;99.90;;;;;;5073855;28;20543;-73
2021/06/05 11:43:21;;;;;;;23.20;20.80;;;22.70;99.90;;;;;;5063422;28;20778;-72
2021/06/05 11:46:22;;;;;;;24.03;21.40;;;22.50;99.90;;;;;;5052464;28;20428;-72
2021/06/05 11:49:01;;;;;;;23.43;20.97;;;22.60;99.90;;;;;;5071445;28;20439;-72
2021/06/05 11:51:32;;;;;;;24.57;20.50;;;22.70;99.90;;;;;;5072432;28;20411;-72
2021/06/05 11:54:02;;;;;;;28.67;23.50;;;22.80;99.90;;;;;;5069911;28;20515;-72
2021/06/05 11:56:45;;;;;;;26.40;23.50;;;22.80;99.90;;;;;;5064764;28;20471;-72
2021/06/05 11:59:23;;;;;;;23.57;20.40;;;22.40;99.90;;;;;;5061162;28;20581;-72
2021/06/05 12:01:50;;;;;;;26.63;21.30;;;22.50;99.90;;;;;;5044072;28;20422;-72
2021/06/05 12:04:21;;;;;;;28.70;22.33;;;22.70;99.90;;;;;;5051652;28;20465;-72
2021/06/05 12:06:49;;;;;;;26.63;23.00;;;22.70;99.90;;;;;;5052090;28;20785;-72
2021/06/05 12:09:23;;;;;;;28.87;24.57;;;22.40;99.90;;;;;;5067261;28;20419;-72
2021/06/05 12:11:51;;;;;;;30.60;25.30;;;22.20;99.90;;;;;;5071217;28;20419;-72
2021/06/05 12:14:38;;;;;;;39.40;28.30;;;22.10;99.90;;;;;;5071054;28;20963;-73
2021/06/05 12:17:14;;;;;;;35.30;28.37;;;21.80;99.90;;;;;;5055328;28;20464;-73
2021/06/05 12:19:40;;;;;;;33.50;25.90;;;21.60;99.90;;;;;;5070847;28;20465;-73
2021/06/05 12:22:12;;;;;;;32.27;24.50;;;21.60;99.90;;;;;;5058215;28;20408;-72
2021/06/05 12:24:40;;;;;;;31.13;24.43;;;21.80;99.90;;;;;;5070496;28;20189;-73
2021/06/05 12:27:07;;;;;;;29.60;24.50;;;22.00;99.90;;;;;;5063727;28;20425;-72
2021/06/05 12:29:36;;;;;;;32.20;25.47;;;22.20;99.90;;;;;;5067180;28;20428;-72
2021/06/05 12:32:31;;;;;;;31.33;26.70;;;22.40;99.90;;;;;;5052722;28;20413;-72
2021/06/05 12:34:57;;;;;;;33.55;27.85;;;22.60;99.90;;;;;;5050953;28;20506;-73
2021/06/05 12:37:31;;;;;;;36.50;28.67;;;22.70;99.90;;;;;;5050788;28;20218;-72
2021/06/05 12:40:16;;;;;;;37.93;30.83;;;22.30;99.90;;;;;;5050519;28;20672;-72
2021/06/05 12:42:45;;;;;;;35.90;28.77;;;22.00;99.90;;;;;;5051107;28;20879;-72
2021/06/05 12:45:15;;;;;;;38.37;28.47;;;21.90;99.90;;;;;;5051702;28;20486;-72